Time;durP1;ratioP1;P1;durP2;ratioP2;P2;SDS_P1;SDS_P2;PMS_P1;PMS_P2;Temp;Humidity;BMP_temperature;BMP_pressure;BME280_temperature;BME280_humidity;BME280_pressure;Samples;Min_cycle;Max_cycle;Signal;HPM_P1;HPM_P2
2022/05/26 00:00:40;;;;;;;;;;;;;;;22.90;40.35;100664.53;2077592;28;2487;-60
2022/05/26 00:01:40;;;;;;;;;;;;;;;22.88;40.82;100663.75;2083422;28;820;-60
2022/05/26 00:02:41;;;;;;;;;;;;;;;22.87;40.62;100662.00;2084054;28;942;-59
2022/05/26 00:03:42;;;;;;;;;;;;;;;22.87;40.34;100656.59;2083913;28;1941;-60
2022/05/26 00:04:42;;;;;;;;;;;;;;;22.87;40.42;100662.00;2083974;28;791;-60
2022/05/26 00:05:42;;;;;;;;;;;;;;;22.86;40.27;100656.63;2083983;28;780;-60
2022/05/26 00:06:43;;;;;;;;;;;;;;;22.86;41.15;100659.34;2084346;28;871;-60
2022/05/26 00:07:43;;;;;;;;;;;;;;;22.84;41.09;100654.03;2084010;28;760;-60
2022/05/26 00:08:44;;;;;;;;;;;;;;;22.84;40.33;100654.03;2083889;28;1033;-60
2022/05/26 00:09:44;;;;;;;;;;;;;;;22.84;40.48;100654.03;2083925;28;859;-60
2022/05/26 00:10:44;;;;;;;;;;;;;;;22.84;40.48;100656.72;2083897;28;772;-60
2022/05/26 00:11:44;;;;;;;;;;;;;;;22.83;40.89;100657.66;2083866;28;847;-59
2022/05/26 00:12:44;;;;;;;;;;;;;;;22.82;41.11;100657.72;2083893;28;997;-59
2022/05/26 00:13:44;;;;;;;;;;;;;;;22.82;41.24;100660.41;2083140;28;1454;-60
2022/05/26 00:14:45;;;;;;;;;;;;;;;22.80;41.17;100663.22;2082635;28;761;-60
2022/05/26 00:15:45;;;;;;;;;;;;;;;22.79;40.87;100664.16;2083836;28;1022;-59
2022/05/26 00:16:46;;;;;;;;;;;;;;;22.79;40.68;100666.84;2083726;28;1288;-60
2022/05/26 00:17:46;;;;;;;;;;;;;;;22.79;41.00;100662.31;2083873;28;889;-59
2022/05/26 00:18:47;;;;;;;;;;;;;;;22.78;41.38;100665.97;2083910;28;772;-60
2022/05/26 00:19:47;;;;;;;;;;;;;;;22.76;41.21;100659.75;2084071;28;784;-59
2022/05/26 00:20:47;;;;;;;;;;;;;;;22.76;40.58;100654.34;2084086;28;886;-60
2022/05/26 00:21:49;;;;;;;;;;;;;;;22.77;41.42;100663.34;2083184;28;1022;-60
2022/05/26 00:22:49;;;;;;;;;;;;;;;22.76;40.74;100657.06;2083229;28;894;-59
2022/05/26 00:23:49;;;;;;;;;;;;;;;22.75;41.48;100655.28;2083737;28;1910;-60
2022/05/26 00:24:49;;;;;;;;;;;;;;;22.76;41.36;100650.78;2083773;28;811;-59
2022/05/26 00:25:50;;;;;;;;;;;;;;;22.75;41.46;100649.91;2083909;28;904;-59
2022/05/26 00:26:50;;;;;;;;;;;;;;;22.73;41.61;100651.78;2083795;28;808;-59
2022/05/26 00:27:50;;;;;;;;;;;;;;;22.73;40.84;100654.50;2083825;28;847;-59
2022/05/26 00:28:50;;;;;;;;;;;;;;;22.73;41.62;100651.78;2083736;28;887;-59
2022/05/26 00:29:50;;;;;;;;;;;;;;;22.74;41.69;100655.38;2083753;28;965;-59
2022/05/26 00:30:50;;;;;;;;;;;;;;;22.72;41.19;100650.03;2083744;28;775;-60
2022/05/26 00:31:51;;;;;;;;;;;;;;;22.72;41.64;100649.19;2083787;28;989;-59
2022/05/26 00:32:51;;;;;;;;;;;;;;;22.73;41.58;100656.34;2083009;28;970;-60
2022/05/26 00:33:51;;;;;;;;;;;;;;;22.72;40.70;100655.44;2083442;28;1060;-60
2022/05/26 00:34:51;;;;;;;;;;;;;;;22.72;40.84;100647.34;2083859;28;1024;-60
2022/05/26 00:35:51;;;;;;;;;;;;;;;22.71;41.60;100650.97;2083715;28;850;-60
2022/05/26 00:36:51;;;;;;;;;;;;;;;22.71;40.80;100648.28;2083744;28;898;-59
2022/05/26 00:37:52;;;;;;;;;;;;;;;22.70;41.23;100648.38;2083569;28;1263;-59
2022/05/26 00:38:52;;;;;;;;;;;;;;;22.69;41.43;100644.78;2083679;28;985;-59
2022/05/26 00:39:52;;;;;;;;;;;;;;;22.69;41.16;100641.22;2083692;28;1032;-60
2022/05/26 00:40:59;;;;;;;;;;;;;;;22.68;41.21;100648.41;2083664;28;855;-59
2022/05/26 00:42:01;;;;;;;;;;;;;;;22.68;40.83;100650.25;2083689;28;1036;-60
2022/05/26 00:43:01;;;;;;;;;;;;;;;22.68;41.50;100645.72;2083703;28;846;-59
2022/05/26 00:44:01;;;;;;;;;;;;;;;22.66;41.47;100647.66;2083599;28;1894;-60
2022/05/26 00:45:02;;;;;;;;;;;;;;;22.65;41.48;100643.19;2083664;28;874;-60
2022/05/26 00:46:07;;;;;;;;;;;;;;;22.66;40.88;100636.84;2083669;28;783;-60
2022/05/26 00:47:33;;;;;;;;;;;;;;;22.67;41.15;100643.09;2083662;28;823;-60
2022/05/26 00:48:42;;;;;;;;;;;;;;;22.65;41.68;100648.59;2082400;28;1100;-60
2022/05/26 00:49:42;;;;;;;;;;;;;;;22.63;41.05;100640.53;2083680;28;827;-60
2022/05/26 00:50:48;;;;;;;;;;;;;;;22.63;41.03;100643.25;2083553;28;1013;-60
2022/05/26 00:51:48;;;;;;;;;;;;;;;22.64;41.00;100636.91;2083653;28;792;-59
2022/05/26 00:52:50;;;;;;;;;;;;;;;22.64;41.52;100642.28;2083538;28;839;-60
2022/05/26 00:53:52;;;;;;;;;;;;;;;22.64;40.96;100638.75;2083587;28;1060;-59
2022/05/26 00:54:53;;;;;;;;;;;;;;;22.63;41.36;100636.97;2083585;28;843;-60
2022/05/26 00:55:55;;;;;;;;;;;;;;;22.63;41.13;100636.97;2083585;28;945;-59
2022/05/26 00:57:03;;;;;;;;;;;;;;;22.62;41.42;100641.50;2083598;28;866;-59
2022/05/26 00:58:14;;;;;;;;;;;;;;;22.63;41.65;100636.97;2083556;28;890;-59
2022/05/26 00:59:18;;;;;;;;;;;;;;;22.61;41.25;100639.75;2083593;28;839;-59
2022/05/26 01:00:20;;;;;;;;;;;;;;;22.61;41.06;100634.34;2083555;28;914;-59
2022/05/26 01:01:20;;;;;;;;;;;;;;;22.61;40.91;100646.97;2083459;28;1743;-60
2022/05/26 01:02:22;;;;;;;;;;;;;;;22.60;40.92;100637.97;2083521;28;1028;-59
2022/05/26 01:03:26;;;;;;;;;;;;;;;22.60;40.99;100646.06;2083452;28;1969;-60
2022/05/26 01:04:28;;;;;;;;;;;;;;;22.60;41.71;100639.81;2083512;28;1052;-60
2022/05/26 01:05:31;;;;;;;;;;;;;;;22.59;41.29;100636.22;2083524;28;796;-60
2022/05/26 01:06:36;;;;;;;;;;;;;;;22.59;41.70;100641.63;2083488;28;973;-60
2022/05/26 01:07:37;;;;;;;;;;;;;;;22.59;41.59;100635.38;2083564;28;737;-59
2022/05/26 01:08:43;;;;;;;;;;;;;;;22.59;41.39;100640.75;2082820;28;1307;-59
2022/05/26 01:09:43;;;;;;;;;;;;;;;22.58;40.81;100633.63;2082918;28;962;-60
2022/05/26 01:10:44;;;;;;;;;;;;;;;22.58;41.78;100631.78;2083418;28;887;-59
2022/05/26 01:11:45;;;;;;;;;;;;;;;22.58;41.28;100631.78;2083416;28;974;-60
2022/05/26 01:12:45;;;;;;;;;;;;;;;22.58;41.65;100633.63;2083448;28;863;-59
2022/05/26 01:13:51;;;;;;;;;;;;;;;22.57;40.99;100635.41;2083732;28;821;-59
2022/05/26 01:14:54;;;;;;;;;;;;;;;22.57;41.72;100624.63;2083409;28;1005;-59
2022/05/26 01:16:01;;;;;;;;;;;;;;;22.57;41.53;100630.03;2083427;28;1053;-59
2022/05/26 01:17:08;;;;;;;;;;;;;;;22.57;40.89;100632.72;2083228;28;1172;-60
2022/05/26 01:18:22;;;;;;;;;;;;;;;22.56;40.80;100633.66;2083449;28;819;-60
2022/05/26 01:19:41;;;;;;;;;;;;;;;22.56;40.96;100624.72;2083440;28;1005;-60
2022/05/26 01:20:47;;;;;;;;;;;;;;;22.56;41.46;100620.16;2083283;28;1107;-59
2022/05/26 01:21:53;;;;;;;;;;;;;;;22.56;40.87;100624.72;2083397;28;1005;-60
2022/05/26 01:23:07;;;;;;;;;;;;;;;22.55;40.82;100623.81;2083372;28;993;-59
2022/05/26 01:24:14;;;;;;;;;;;;;;;22.55;41.31;100623.81;2083444;28;1979;-60
2022/05/26 01:25:22;;;;;;;;;;;;;;;22.55;41.08;100623.81;2083339;28;923;-60
2022/05/26 01:26:45;;;;;;;;;;;;;;;22.54;40.84;100619.34;2083702;28;1005;-59
2022/05/26 01:27:51;;;;;;;;;;;;;;;22.54;41.10;100622.06;2083118;28;1814;-60
2022/05/26 01:28:51;;;;;;;;;;;;;;;22.54;41.16;100621.19;2083329;28;990;-60
2022/05/26 01:29:51;;;;;;;;;;;;;;;22.54;41.42;100622.06;2083383;28;1102;-60
2022/05/26 01:31:00;;;;;;;;;;;;;;;22.54;41.10;100619.34;2083262;28;966;-59
2022/05/26 01:32:10;;;;;;;;;;;;;;;22.52;41.50;100618.56;2083299;28;787;-59
2022/05/26 01:33:16;;;;;;;;;;;;;;;22.53;40.75;100620.31;2083440;28;1005;-60
2022/05/26 01:34:25;;;;;;;;;;;;;;;22.52;40.74;100612.28;2083294;28;959;-60
2022/05/26 01:35:30;;;;;;;;;;;;;;;22.50;41.11;100612.34;2082599;28;812;-60
2022/05/26 01:36:42;;;;;;;;;;;;;;;22.50;41.68;100618.63;2082706;28;1024;-60
2022/05/26 01:37:45;;;;;;;;;;;;;;;22.51;40.82;100614.09;2083282;28;1057;-60
2022/05/26 01:38:59;;;;;;;;;;;;;;;22.50;41.69;100607.84;2083209;28;989;-60
2022/05/26 01:39:59;;;;;;;;;;;;;;;22.50;41.58;100615.03;2083227;28;1009;-59
2022/05/26 01:41:18;;;;;;;;;;;;;;;22.48;40.75;100607.03;2083616;28;831;-60
2022/05/26 01:42:37;;;;;;;;;;;;;;;22.50;40.93;100606.94;2083155;28;967;-60
2022/05/26 01:43:50;;;;;;;;;;;;;;;22.48;41.47;100609.72;2083113;28;1902;-59
2022/05/26 01:45:03;;;;;;;;;;;;;;;22.48;41.05;100608.84;2083192;28;1060;-59
2022/05/26 01:46:03;;;;;;;;;;;;;;;22.48;41.48;100598.94;2083243;28;796;-59
2022/05/26 01:47:10;;;;;;;;;;;;;;;22.48;40.91;100593.53;2083118;28;974;-60
2022/05/26 01:48:14;;;;;;;;;;;;;;;22.48;41.37;100604.34;2083180;28;831;-60
2022/05/26 01:49:23;;;;;;;;;;;;;;;22.47;41.59;100602.56;2083179;28;890;-60
2022/05/26 01:50:32;;;;;;;;;;;;;;;22.47;41.48;100598.97;2083115;28;799;-60
2022/05/26 01:51:37;;;;;;;;;;;;;;;22.47;41.06;100604.38;2083170;28;796;-60
2022/05/26 01:52:44;;;;;;;;;;;;;;;22.48;40.87;100600.75;2083165;28;993;-59
2022/05/26 01:54:08;;;;;;;;;;;;;;;22.46;40.86;100598.13;2083116;28;993;-60
2022/05/26 01:55:15;;;;;;;;;;;;;;;22.47;41.38;100594.47;2083102;28;1057;-60
2022/05/26 01:56:19;;;;;;;;;;;;;;;22.47;41.54;100589.09;2083470;28;827;-60
2022/05/26 01:57:29;;;;;;;;;;;;;;;22.48;40.99;100589.94;2083613;28;783;-60
2022/05/26 01:58:33;;;;;;;;;;;;;;;22.46;41.65;100589.13;2083107;28;983;-60
2022/05/26 01:59:52;;;;;;;;;;;;;;;22.47;41.69;100588.19;2083088;28;784;-60
2022/05/26 02:00:53;;;;;;;;;;;;;;;22.45;41.07;100590.97;2083113;28;1022;-59
2022/05/26 02:02:05;;;;;;;;;;;;;;;22.46;41.41;100589.13;2083088;28;784;-59
2022/05/26 02:03:07;;;;;;;;;;;;;;;22.45;40.75;100590.09;2083123;28;998;-60
2022/05/26 02:04:14;;;;;;;;;;;;;;;22.46;41.59;100587.31;2083025;28;1957;-60
2022/05/26 02:05:15;;;;;;;;;;;;;;;22.45;41.53;100585.56;2083164;28;938;-58
2022/05/26 02:06:24;;;;;;;;;;;;;;;22.44;41.46;100582.94;2083047;28;777;-59
2022/05/26 02:07:34;;;;;;;;;;;;;;;22.44;41.19;100585.63;2083026;28;811;-60
2022/05/26 02:08:38;;;;;;;;;;;;;;;22.44;40.87;100588.31;2083117;28;843;-59
2022/05/26 02:09:41;;;;;;;;;;;;;;;22.43;41.58;100582.03;2083024;28;982;-60
2022/05/26 02:10:48;;;;;;;;;;;;;;;22.43;41.55;100582.03;2083150;28;771;-60
2022/05/26 02:12:00;;;;;;;;;;;;;;;22.44;40.83;100585.63;2083098;28;1005;-59
2022/05/26 02:13:03;;;;;;;;;;;;;;;22.42;41.07;100580.28;2083024;28;922;-60
2022/05/26 02:14:12;;;;;;;;;;;;;;;22.43;41.55;100578.44;2082974;28;894;-59
2022/05/26 02:15:18;;;;;;;;;;;;;;;22.43;41.57;100575.75;2083026;28;835;-60
2022/05/26 02:16:34;;;;;;;;;;;;;;;22.43;40.79;100575.75;2082974;28;1048;-59
2022/05/26 02:17:38;;;;;;;;;;;;;;;22.43;40.75;100571.25;2082816;28;1063;-60
2022/05/26 02:18:41;;;;;;;;;;;;;;;22.43;41.23;100578.44;2082991;28;978;-60
2022/05/26 02:19:45;;;;;;;;;;;;;;;22.42;41.50;100564.09;2082929;28;949;-60
2022/05/26 02:20:49;;;;;;;;;;;;;;;22.42;41.50;100569.50;2082998;28;871;-59
2022/05/26 02:21:52;;;;;;;;;;;;;;;22.43;41.42;100570.34;2082896;28;1060;-60
2022/05/26 02:22:59;;;;;;;;;;;;;;;22.41;40.92;100564.13;2082957;28;862;-59
2022/05/26 02:24:07;;;;;;;;;;;;;;;22.40;40.77;100565.97;2082969;28;1977;-60
2022/05/26 02:25:07;;;;;;;;;;;;;;;22.40;41.48;100560.59;2083226;28;866;-59
2022/05/26 02:26:07;;;;;;;;;;;;;;;22.40;41.03;100557.00;2082976;28;950;-60
2022/05/26 02:27:08;;;;;;;;;;;;;;;22.40;41.10;100557.88;2082919;28;1048;-60
2022/05/26 02:28:09;;;;;;;;;;;;;;;22.40;40.88;100555.19;2083092;28;950;-60
2022/05/26 02:30:33;;;;;;;;;;;;;;;22.39;41.00;100553.44;2082995;28;630;-60
2022/05/26 02:31:34;;;;;;;;;;;;;;;22.40;40.85;100551.59;2082961;28;1005;-59
2022/05/26 02:32:36;;;;;;;;;;;;;;;22.41;41.47;100545.25;2083027;28;787;-59
2022/05/26 02:33:36;;;;;;;;;;;;;;;22.40;41.25;100546.19;2082944;28;989;-59
2022/05/26 02:34:38;;;;;;;;;;;;;;;22.39;40.98;100545.34;2082999;28;852;-60
2022/05/26 02:35:40;;;;;;;;;;;;;;;22.39;41.28;100545.34;2082940;28;993;-59
2022/05/26 02:36:41;;;;;;;;;;;;;;;22.39;41.47;100548.03;2082939;28;775;-59
2022/05/26 02:37:42;;;;;;;;;;;;;;;22.39;41.39;100542.63;2082458;28;1208;-60
2022/05/26 02:38:42;;;;;;;;;;;;;;;22.39;41.42;100544.44;2083362;28;1012;-60
2022/05/26 02:39:42;;;;;;;;;;;;;;;22.38;41.13;100545.38;2082964;28;931;-60
2022/05/26 02:40:44;;;;;;;;;;;;;;;22.38;41.08;100537.28;2082887;28;1044;-59
2022/05/26 02:41:44;;;;;;;;;;;;;;;22.38;40.92;100534.59;2082877;28;886;-60
2022/05/26 02:42:51;;;;;;;;;;;;;;;22.38;41.43;100532.78;2082198;28;970;-60
2022/05/26 02:43:51;;;;;;;;;;;;;;;22.38;40.97;100535.50;2082229;28;1981;-60
2022/05/26 02:44:52;;;;;;;;;;;;;;;22.38;40.89;100529.19;2082959;28;925;-59
2022/05/26 02:46:07;;;;;;;;;;;;;;;22.38;41.07;100529.19;2082903;28;957;-60
2022/05/26 02:47:07;;;;;;;;;;;;;;;22.38;41.46;100529.19;2082168;28;872;-60
2022/05/26 02:48:20;;;;;;;;;;;;;;;22.38;41.58;100529.19;2082296;28;915;-59
2022/05/26 02:49:20;;;;;;;;;;;;;;;22.36;41.59;100524.78;2082880;28;1033;-60
2022/05/26 02:50:36;;;;;;;;;;;;;;;22.36;40.82;100531.97;2082895;28;823;-59
2022/05/26 02:51:46;;;;;;;;;;;;;;;22.35;41.54;100523.03;2082199;28;957;-59
2022/05/26 02:52:57;;;;;;;;;;;;;;;22.36;40.88;100526.59;2082545;28;729;-59
2022/05/26 02:53:57;;;;;;;;;;;;;;;22.35;41.04;100520.31;2082862;28;1032;-59
2022/05/26 02:55:01;;;;;;;;;;;;;;;22.35;41.28;100524.84;2082805;28;962;-60
2022/05/26 02:56:11;;;;;;;;;;;;;;;22.35;40.83;100523.03;2082765;28;1002;-59
2022/05/26 02:57:29;;;;;;;;;;;;;;;22.35;41.28;100519.44;2082886;28;843;-59
2022/05/26 02:58:41;;;;;;;;;;;;;;;22.35;40.72;100514.03;2082822;28;799;-59
2022/05/26 02:59:43;;;;;;;;;;;;;;;22.35;41.26;100519.44;2082849;28;783;-59
2022/05/26 03:00:59;;;;;;;;;;;;;;;22.34;40.87;100515.88;2082740;28;875;-60
2022/05/26 03:02:18;;;;;;;;;;;;;;;22.34;40.83;100512.28;2082149;28;800;-59
2022/05/26 03:03:22;;;;;;;;;;;;;;;22.35;40.83;100508.66;2082391;28;993;-59
2022/05/26 03:04:28;;;;;;;;;;;;;;;22.34;40.57;100513.19;2082694;28;1890;-59
2022/05/26 03:05:47;;;;;;;;;;;;;;;22.33;41.56;100511.44;2083148;28;784;-60
2022/05/26 03:06:52;;;;;;;;;;;;;;;22.33;41.19;100508.72;2082769;28;886;-59
2022/05/26 03:07:55;;;;;;;;;;;;;;;22.33;41.13;100514.13;2082734;28;937;-59
2022/05/26 03:08:55;;;;;;;;;;;;;;;22.34;40.83;100512.28;2082769;28;990;-60
2022/05/26 03:09:56;;;;;;;;;;;;;;;22.34;41.62;100506.88;2082789;28;875;-59
2022/05/26 03:11:13;;;;;;;;;;;;;;;22.33;40.80;100508.72;2082751;28;981;-60
2022/05/26 03:12:27;;;;;;;;;;;;;;;22.33;41.68;100499.75;2082782;28;819;-59
2022/05/26 03:13:27;;;;;;;;;;;;;;;22.33;40.83;100488.94;2082710;28;879;-59
2022/05/26 03:14:28;;;;;;;;;;;;;;;22.33;41.01;100489.84;2082759;28;1045;-59
2022/05/26 03:15:29;;;;;;;;;;;;;;;22.33;41.17;100495.25;2082880;28;911;-59
2022/05/26 03:16:29;;;;;;;;;;;;;;;22.33;40.92;100489.84;2082762;28;982;-59
2022/05/26 03:17:29;;;;;;;;;;;;;;;22.34;41.30;100491.59;2082566;28;1243;-59
2022/05/26 03:18:30;;;;;;;;;;;;;;;22.33;41.22;100487.16;2082695;28;859;-60
2022/05/26 03:19:31;;;;;;;;;;;;;;;22.32;41.59;100493.47;2082797;28;843;-59
2022/05/26 03:20:31;;;;;;;;;;;;;;;22.34;41.17;100493.41;2083095;28;720;-59
2022/05/26 03:21:31;;;;;;;;;;;;;;;22.32;40.92;100498.88;2082693;28;1025;-60
2022/05/26 03:22:31;;;;;;;;;;;;;;;22.32;41.63;100487.19;2082625;28;776;-59
2022/05/26 03:23:31;;;;;;;;;;;;;;;22.32;40.81;100489.91;2082637;28;1918;-59
2022/05/26 03:24:31;;;;;;;;;;;;;;;22.33;41.35;100488.94;2082727;28;993;-59
2022/05/26 03:25:32;;;;;;;;;;;;;;;22.33;40.83;100495.25;2082698;28;835;-59
2022/05/26 03:26:32;;;;;;;;;;;;;;;22.31;41.11;100486.34;2082672;28;855;-60
2022/05/26 03:27:32;;;;;;;;;;;;;;;22.32;40.93;100485.38;2082678;28;910;-60
2022/05/26 03:28:32;;;;;;;;;;;;;;;22.31;41.21;100483.63;2082699;28;852;-59
2022/05/26 03:29:33;;;;;;;;;;;;;;;22.32;40.92;100482.69;2082706;28;880;-59
2022/05/26 03:30:33;;;;;;;;;;;;;;;22.32;40.82;100488.09;2082645;28;977;-59
2022/05/26 03:31:33;;;;;;;;;;;;;;;22.32;40.74;100480.00;2082676;28;716;-59
2022/05/26 03:32:34;;;;;;;;;;;;;;;22.31;40.87;100480.94;2082674;28;787;-59
2022/05/26 03:40:46;;;;;;;;;;;;;;;22.32;41.25;100476.41;2082664;28;868;-60
2022/05/26 03:41:42;;;;;;;;;;;;;;;22.31;40.89;100471.94;2073563;28;974;-59
2022/05/26 03:42:43;;;;;;;;;;;;;;;22.31;40.96;100464.75;2073469;28;1045;-59
2022/05/26 03:43:46;;;;;;;;;;;;;;;22.31;40.92;100472.84;2065205;28;1969;-59
2022/05/26 03:44:46;;;;;;;;;;;;;;;22.31;40.81;100474.66;2065529;28;1074;-59
2022/05/26 03:45:47;;;;;;;;;;;;;;;22.31;41.65;100467.44;2073439;28;780;-60
2022/05/26 03:46:48;;;;;;;;;;;;;;;22.31;41.11;100470.16;2073478;28;840;-59
2022/05/26 03:47:49;;;;;;;;;;;;;;;22.31;41.01;100469.25;2073768;28;808;-59
2022/05/26 03:48:49;;;;;;;;;;;;;;;22.31;40.90;100470.16;2073467;28;1035;-59
2022/05/26 03:49:49;;;;;;;;;;;;;;;22.31;40.92;100463.84;2074267;28;1041;-59
2022/05/26 03:50:49;;;;;;;;;;;;;;;22.31;41.10;100463.84;2074895;28;944;-59
2022/05/26 03:51:49;;;;;;;;;;;;;;;22.30;41.34;100456.72;2074923;28;868;-60
2022/05/26 03:52:51;;;;;;;;;;;;;;;22.29;40.86;100458.53;2074879;28;1041;-59
2022/05/26 03:53:51;;;;;;;;;;;;;;;22.29;41.13;100457.66;2074855;28;808;-60
2022/05/26 03:54:51;;;;;;;;;;;;;;;22.30;41.01;100462.09;2074820;28;903;-60
2022/05/26 03:55:51;;;;;;;;;;;;;;;22.29;41.42;100455.84;2074883;28;718;-59
2022/05/26 03:56:52;;;;;;;;;;;;;;;22.29;41.46;100453.16;2074823;28;1027;-60
2022/05/26 03:57:52;;;;;;;;;;;;;;;22.29;40.93;100445.06;2074829;28;915;-59
2022/05/26 03:58:52;;;;;;;;;;;;;;;22.29;41.79;100446.88;2074738;28;1024;-60
2022/05/26 03:59:52;;;;;;;;;;;;;;;22.28;41.26;100448.69;2074991;28;776;-59
2022/05/26 04:00:53;;;;;;;;;;;;;;;22.29;41.07;100444.16;2074784;28;863;-59
2022/05/26 04:01:53;;;;;;;;;;;;;;;22.88;40.62;100447.69;2074815;28;844;-60
2022/05/26 04:02:53;;;;;;;;;;;;;;;23.95;38.25;100442.22;2074762;28;1021;-59
2022/05/26 04:03:55;;;;;;;;;;;;;;;24.63;36.48;100434.94;2074712;28;1887;-59
2022/05/26 04:04:56;;;;;;;;;;;;;;;25.19;35.41;100434.47;2074788;28;832;-60
2022/05/26 04:05:56;;;;;;;;;;;;;;;25.58;34.68;100432.19;2074817;28;804;-60
2022/05/26 04:06:56;;;;;;;;;;;;;;;25.78;33.54;100433.66;2074833;28;807;-59
2022/05/26 04:07:56;;;;;;;;;;;;;;;26.04;32.97;100433.84;2074787;28;978;-60
2022/05/26 04:08:56;;;;;;;;;;;;;;;26.21;32.90;100429.22;2074775;28;993;-59
2022/05/26 04:09:57;;;;;;;;;;;;;;;26.30;33.21;100426.78;2074773;28;1062;-59
2022/05/26 04:10:57;;;;;;;;;;;;;;;26.58;31.92;100421.41;2074722;28;982;-60
2022/05/26 04:11:57;;;;;;;;;;;;;;;26.61;31.88;100421.19;2074872;28;1175;-59
2022/05/26 04:12:57;;;;;;;;;;;;;;;26.88;31.47;100426.69;2074755;28;831;-60
2022/05/26 04:13:57;;;;;;;;;;;;;;;27.07;31.21;100428.16;2074697;28;958;-60
2022/05/26 04:14:58;;;;;;;;;;;;;;;27.27;30.53;100432.25;2074719;28;1005;-59
2022/05/26 04:15:58;;;;;;;;;;;;;;;27.36;30.92;100414.44;2074700;28;896;-59
2022/05/26 04:16:59;;;;;;;;;;;;;;;27.62;30.63;100418.09;2081818;28;1038;-59
2022/05/26 04:17:59;;;;;;;;;;;;;;;27.61;29.92;100412.75;2083943;28;795;-59
2022/05/26 04:18:59;;;;;;;;;;;;;;;27.89;29.55;100419.81;2083838;28;930;-60
2022/05/26 04:20:00;;;;;;;;;;;;;;;27.77;29.65;100415.25;2083993;28;686;-60
2022/05/26 04:21:07;;;;;;;;;;;;;;;27.72;29.68;100409.25;2083835;28;937;-60
2022/05/26 04:22:23;;;;;;;;;;;;;;;28.04;29.34;100404.22;2083874;28;985;-59
2022/05/26 04:23:23;;;;;;;;;;;;;;;28.58;28.81;100404.91;2083897;28;527;-60
2022/05/26 04:24:23;;;;;;;;;;;;;;;28.66;28.79;100407.91;2083794;28;1963;-60
2022/05/26 04:25:25;;;;;;;;;;;;;;;28.83;28.66;100409.44;2083850;28;862;-59
2022/05/26 04:26:25;;;;;;;;;;;;;;;28.62;28.71;100400.09;2083960;28;893;-60
2022/05/26 04:27:27;;;;;;;;;;;;;;;28.57;28.80;100396.84;2083791;28;859;-60
2022/05/26 04:28:27;;;;;;;;;;;;;;;28.98;28.36;100398.31;2083833;28;993;-60
2022/05/26 04:29:28;;;;;;;;;;;;;;;29.22;27.94;100394.72;2083781;28;993;-60
2022/05/26 04:30:28;;;;;;;;;;;;;;;28.99;28.07;100405.53;2083799;28;867;-60
2022/05/26 04:31:28;;;;;;;;;;;;;;;29.20;27.86;100396.69;2083740;28;985;-60
2022/05/26 04:32:28;;;;;;;;;;;;;;;29.22;27.89;100401.03;2083760;28;1024;-60
2022/05/26 04:33:29;;;;;;;;;;;;;;;29.55;27.19;100395.81;2083736;28;839;-60
2022/05/26 04:34:29;;;;;;;;;;;;;;;29.64;27.28;100389.63;2083770;28;880;-60
2022/05/26 04:35:29;;;;;;;;;;;;;;;29.71;26.80;100398.22;2083705;28;910;-60
2022/05/26 04:36:29;;;;;;;;;;;;;;;29.84;27.15;100388.03;2083716;28;1025;-60
2022/05/26 04:37:30;;;;;;;;;;;;;;;29.79;26.84;100389.41;2083669;28;1208;-60
2022/05/26 04:38:30;;;;;;;;;;;;;;;29.56;27.46;100384.78;2083746;28;946;-60
2022/05/26 04:39:31;;;;;;;;;;;;;;;29.64;27.54;100386.03;2083706;28;870;-60
2022/05/26 04:40:31;;;;;;;;;;;;;;;29.98;26.86;100380.63;2083698;28;831;-60
2022/05/26 04:41:31;;;;;;;;;;;;;;;30.12;26.89;100384.94;2083972;28;997;-60
2022/05/26 04:42:32;;;;;;;;;;;;;;;30.24;26.50;100383.97;2083669;28;970;-60
2022/05/26 04:43:32;;;;;;;;;;;;;;;30.51;26.34;100385.41;2083616;28;1902;-60
2022/05/26 04:44:34;;;;;;;;;;;;;;;30.59;26.09;100377.47;2083669;28;879;-60
2022/05/26 04:45:34;;;;;;;;;;;;;;;30.55;26.03;100383.28;2083666;28;969;-60
2022/05/26 04:46:36;;;;;;;;;;;;;;;30.74;25.58;100382.63;2083629;28;807;-60
2022/05/26 04:47:36;;;;;;;;;;;;;;;30.75;26.20;100379.78;2083647;28;878;-60
2022/05/26 04:48:37;;;;;;;;;;;;;;;30.83;25.98;100375.53;2083613;28;985;-59
2022/05/26 04:49:37;;;;;;;;;;;;;;;31.04;25.46;100378.31;2083667;28;868;-60
2022/05/26 04:50:38;;;;;;;;;;;;;;;31.11;25.29;100370.41;2083615;28;835;-60
2022/05/26 04:51:38;;;;;;;;;;;;;;;31.05;25.09;100372.69;2083626;28;863;-60
2022/05/26 04:52:38;;;;;;;;;;;;;;;31.16;25.06;100374.53;2083625;28;800;-60
2022/05/26 04:53:38;;;;;;;;;;;;;;;31.14;25.15;100376.50;2083615;28;882;-59
2022/05/26 04:54:39;;;;;;;;;;;;;;;31.10;25.27;100369.56;2083577;28;989;-59
2022/05/26 04:55:39;;;;;;;;;;;;;;;31.26;25.22;100373.72;2083617;28;1228;-59
2022/05/26 04:56:39;;;;;;;;;;;;;;;31.18;24.99;100377.13;2084241;28;827;-60
2022/05/26 04:57:39;;;;;;;;;;;;;;;31.21;24.88;100371.41;2083539;28;970;-60
2022/05/26 04:58:39;;;;;;;;;;;;;;;31.31;25.16;100366.88;2083547;28;776;-60
2022/05/26 04:59:40;;;;;;;;;;;;;;;31.37;25.10;100359.97;2083630;28;1041;-60
2022/05/26 05:00:40;;;;;;;;;;;;;;;31.24;24.62;100371.13;2083287;28;946;-60
2022/05/26 05:01:41;;;;;;;;;;;;;;;31.26;25.17;100366.41;2083530;28;1020;-60
2022/05/26 05:02:41;;;;;;;;;;;;;;;31.35;24.58;100361.97;2083501;28;816;-60
2022/05/26 05:03:41;;;;;;;;;;;;;;;31.20;25.41;100358.72;2083446;28;1957;-59
2022/05/26 05:04:44;;;;;;;;;;;;;;;31.33;25.11;100355.78;2083509;28;784;-60
2022/05/26 05:05:44;;;;;;;;;;;;;;;31.37;24.43;100357.25;2083551;28;803;-60
2022/05/26 05:06:44;;;;;;;;;;;;;;;31.27;25.04;100364.50;2083472;28;787;-60
2022/05/26 05:07:44;;;;;;;;;;;;;;;31.49;24.45;100358.91;2083445;28;914;-60
2022/05/26 05:08:45;;;;;;;;;;;;;;;31.66;24.59;100356.56;2083508;28;978;-60
2022/05/26 05:09:46;;;;;;;;;;;;;;;31.64;24.50;100356.69;2083438;28;1036;-60
2022/05/26 05:10:46;;;;;;;;;;;;;;;31.58;24.43;100359.09;2084136;28;822;-60
2022/05/26 05:11:46;;;;;;;;;;;;;;;31.68;24.04;100357.28;2083427;28;993;-60
2022/05/26 05:12:48;;;;;;;;;;;;;;;31.81;23.89;100356.19;2083527;28;906;-60
2022/05/26 05:13:48;;;;;;;;;;;;;;;31.73;24.22;100356.91;2082799;28;860;-60
2022/05/26 05:14:50;;;;;;;;;;;;;;;31.79;24.07;100354.50;2082822;28;910;-59
2022/05/26 05:15:53;;;;;;;;;;;;;;;31.68;24.08;100356.41;2083442;28;1020;-60
2022/05/26 05:16:53;;;;;;;;;;;;;;;31.52;24.69;100344.06;2083279;28;1232;-60
2022/05/26 05:17:53;;;;;;;;;;;;;;;31.57;24.06;100346.41;2083427;28;989;-60
2022/05/26 05:18:54;;;;;;;;;;;;;;;31.65;24.17;100352.09;2082729;28;1207;-60
2022/05/26 05:19:54;;;;;;;;;;;;;;;31.74;24.25;100344.94;2082876;28;867;-60
2022/05/26 05:20:56;;;;;;;;;;;;;;;31.85;23.57;100342.13;2083405;28;859;-59
2022/05/26 05:22:04;;;;;;;;;;;;;;;31.96;23.80;100341.13;2083391;28;989;-60
2022/05/26 05:23:08;;;;;;;;;;;;;;;31.86;24.10;100332.03;2083406;28;993;-60
2022/05/26 05:24:14;;;;;;;;;;;;;;;31.94;24.10;100335.81;2083265;28;1910;-60
2022/05/26 05:25:18;;;;;;;;;;;;;;;31.75;23.89;100344.81;2083568;28;811;-60
2022/05/26 05:26:21;;;;;;;;;;;;;;;31.74;24.03;100342.22;2083509;28;978;-60
2022/05/26 05:27:25;;;;;;;;;;;;;;;31.82;24.09;100330.56;2082681;28;883;-60
2022/05/26 05:28:28;;;;;;;;;;;;;;;31.83;24.35;100321.34;2082792;28;1041;-60
2022/05/26 05:29:33;;;;;;;;;;;;;;;31.94;23.72;100332.19;2083304;28;997;-60
2022/05/26 05:30:35;;;;;;;;;;;;;;;31.75;24.26;100336.63;2083400;28;981;-59
2022/05/26 05:31:39;;;;;;;;;;;;;;;31.83;24.06;100329.56;2083279;28;997;-60
2022/05/26 05:32:43;;;;;;;;;;;;;;;32.01;23.57;100324.31;2083312;28;753;-60
2022/05/26 05:33:49;;;;;;;;;;;;;;;32.07;23.70;100324.59;2083239;28;820;-60
2022/05/26 05:34:52;;;;;;;;;;;;;;;32.00;23.50;100326.16;2082561;28;1048;-60
2022/05/26 05:35:57;;;;;;;;;;;;;;;32.08;23.32;100326.34;2082692;28;879;-60
2022/05/26 05:36:58;;;;;;;;;;;;;;;31.91;23.42;100327.00;2083206;28;878;-60
2022/05/26 05:37:58;;;;;;;;;;;;;;;31.94;23.92;100323.97;2083273;28;859;-60
2022/05/26 05:38:59;;;;;;;;;;;;;;;31.91;24.20;100321.53;2083221;28;938;-60
2022/05/26 05:40:00;;;;;;;;;;;;;;;32.07;23.37;100323.75;2083244;28;862;-60
2022/05/26 05:41:01;;;;;;;;;;;;;;;32.06;23.90;100327.50;2083405;28;994;-60